Demossville, Kentucky
Current Conditions -  °F | °C
As of 11:53 PM on Saturday 22 Nov 2014 (Local Time) from KLUK Reporting Station
Clear Clear  
Wind Chill: 43°   Ceiling: Unl
Heat Index: 43°   Visibility: 10mi
Dew Point: 35°   Wind: 3mph
Humidity: 74%   Direction: 240°WSW
Pressure: 30.08"   Gusts: NA
Location:  38.8043°N, 84.4185°W
Report Text: KLUK 230453Z AUTO 24003KT 10SM CLR 06/02 A3008 RMK AO2 SLP188 T00610017 401611072
Loading
Personal Weather Stations






























Interactive Weather Map New forecast layout! Learn more

10-Day Weather Forecast

Advertisements
Track Severe Weather on mobile